Flight Track Log - Related Links

Times and Time Zones

All times are in EDT time to prevent confusion due to time zone crossing. See the SWA1496 flight status page for this flight to view local times or setup timezone preferences in your user account.

Time Position Orientation Groundspeed Altitude Reporting Facility
EDT Latitude Longitude Course Direction KTS MPH feet Rate Location/Type
Sat 05:48:17 PM 32.7536 -117.2739 226° Southwest 205 236 2,800  Level Los Angeles Center
Sat 05:49:19 PM 32.7081 -117.3300 226° Southwest 240 276 7,100 3,122 Climbing Los Angeles Center
Sat 05:50:20 PM 32.6642 -117.2806 137° Southeast 272 313 9,200 2,565 Climbing Los Angeles Center
Sat 05:51:23 PM 32.6381 -117.1586 104° East 320 368 12,400 3,145 Climbing Los Angeles Center
Sat 05:52:24 PM 32.6194 -117.0442 101° East 347 399 15,700 3,024 Climbing Los Angeles Center
Sat 05:53:26 PM 32.6153 -116.9222 92° East 366 421 18,600 2,758 Climbing Los Angeles Center
Sat 05:54:28 PM 32.6281 -116.7969 83° East 382 440 21,400 2,758 Climbing Los Angeles Center
Sat 05:55:30 PM 32.6439 -116.6372 83° East 404 465 24,300 2,468 Climbing Los Angeles Center
Sat 05:56:32 PM 32.6575 -116.4986 83° East 422 486 26,500 2,000 Climbing Los Angeles Center
Sat 05:57:33 PM 32.6700 -116.3550 84° East 443 510 28,400 1,756 Climbing Los Angeles Center
Sat 05:58:35 PM 32.6847 -116.2056 83° East 461 531 30,100 1,597 Climbing Los Angeles Center
Sat 05:59:37 PM 32.7025 -116.0192 83° East 479 551 31,700 1,403 Climbing Los Angeles Center
Sat 06:00:39 PM 32.7178 -115.8561 84° East 497 572 33,000 1,355 Climbing Los Angeles Center
Sat 06:01:41 PM 32.7331 -115.6889 84° East 508 585 34,500 1,366 Climbing Los Angeles Center
Sat 06:02:42 PM 32.7483 -115.5206 84° East 513 590 35,800 1,317 Climbing Los Angeles Center
Sat 06:03:44 PM 32.7542 -115.3475 88° East 524 603 37,200 1,258 Climbing Los Angeles Center
Sat 06:04:46 PM 32.7586 -115.1758 88° East 521 600 38,400 871 Climbing Los Angeles Center
Sat 06:05:48 PM 32.7628 -115.0364 88° East 525 604 39,000 290 Climbing Los Angeles Center
Sat 06:06:50 PM 32.7672 -114.7894 89° East 534 615 39,000  Level Los Angeles Center
Sat 06:07:52 PM 32.7717 -114.6111 88° East 539 620 39,000  Level Los Angeles Center
Sat 06:08:54 PM 32.7731 -114.4294 89° East 544 626 39,000  Level Los Angeles Center
Sat 06:10:08 PM 32.7753 -114.2486 89° East 547 629 39,000  Level Los Angeles Center
Sat 06:11:10 PM 32.7775 -114.0306 89° East 548 631 39,000  Level Los Angeles Center
Sat 06:11:34 PM 32.7808 -113.9436 87° East 551 634 39,000  Level Albuquerque Center
Sat 06:12:36 PM 32.8072 -113.7653 80° East 548 631 39,000  Level Albuquerque Center
Sat 06:13:37 PM 32.8328 -113.5847 80° East 551 634 39,000  Level Albuquerque Center
Sat 06:14:39 PM 32.8569 -113.4053 81° East 550 633 39,000  Level Albuquerque Center
Sat 06:15:41 PM 32.8822 -113.2258 80° East 548 631 39,000  Level Albuquerque Center
Sat 06:16:42 PM 32.9064 -113.0447 81° East 549 632 39,000  Level Albuquerque Center
Sat 06:17:44 PM 32.9311 -112.8644 81° East 549 632 39,000  Level Albuquerque Center
Sat 06:18:45 PM 32.9511 -112.6467 84° East 548 631 39,000  Level Albuquerque Center
Sat 06:19:47 PM 32.9325 -112.4656 97° East 549 632 39,000  Level Albuquerque Center
Sat 06:20:49 PM 32.9119 -112.2836 98° East 553 636 39,000  Level Albuquerque Center
Sat 06:21:50 PM 32.8894 -112.0886 98° East 559 643 39,000  Level Albuquerque Center
Sat 06:22:52 PM 32.8686 -111.9089 98° East 556 640 39,000  Level Albuquerque Center
Sat 06:23:53 PM 32.8467 -111.7267 98° East 558 642 39,000  Level Albuquerque Center
Sat 06:24:55 PM 32.8244 -111.5442 98° East 561 646 39,000  Level Albuquerque Center
Sat 06:25:56 PM 32.8022 -111.3617 98° East 561 646 39,000  Level Albuquerque Center
Sat 06:26:58 PM 32.7789 -111.1789 99° East 562 647 39,000  Level Albuquerque Center
Sat 06:27:59 PM 32.7561 -110.9953 98° East 564 649 39,000  Level Albuquerque Center
Sat 06:29:01 PM 32.7272 -110.7758 99° East 564 649 39,000  Level Albuquerque Center
Sat 06:30:02 PM 32.7047 -110.6033 99° East 562 647 39,000  Level Albuquerque Center
Sat 06:31:04 PM 32.6806 -110.4203 99° East 566 651 39,000  Level Albuquerque Center
Sat 06:32:05 PM 32.6575 -110.2383 99° East 565 650 39,000  Level Albuquerque Center
Sat 06:33:07 PM 32.6269 -110.0197 99° East 567 652 39,000  Level Albuquerque Center
Sat 06:34:08 PM 32.6017 -109.8372 99° East 567 652 39,000  Level Albuquerque Center
Sat 06:35:10 PM 32.5764 -109.6533 99° East 571 657 39,000  Level Albuquerque Center
Sat 06:36:11 PM 32.5492 -109.4700 100° East 575 662 39,000  Level Albuquerque Center
Sat 06:37:13 PM 32.5233 -109.2869 99° East 574 661 39,000  Level Albuquerque Center
Sat 06:38:14 PM 32.4983 -109.1061 99° East 569 655 39,000  Level Albuquerque Center
Sat 06:39:15 PM 32.4669 -108.8889 100° East 569 655 39,000  Level Albuquerque Center
Sat 06:40:17 PM 32.4408 -108.7078 100° East 569 655 39,000 -829 Level Albuquerque Center
Sat 06:41:18 PM 32.4150 -108.5281 100° East 566 651 37,300 -1,463 Descending Albuquerque Center
Sat 06:42:20 PM 32.3875 -108.3467 100° East 564 649 36,000 -1,707 Descending Albuquerque Center
Sat 06:43:21 PM 32.3611 -108.1736 100° East 542 624 33,800 -2,164 Descending Albuquerque Center
Sat 06:44:22 PM 32.3350 -108.0033 100° East 531 611 31,600 -2,585 Descending Albuquerque Center
Sat 06:45:24 PM 32.3067 -107.8100 100° East 504 580 28,500 -2,878 Descending Albuquerque Center
Sat 06:46:25 PM 32.2825 -107.6542 100° East 489 563 25,700 -2,607 Descending Albuquerque Center
Sat 06:47:26 PM 32.2531 -107.5072 103° East 470 541 23,200 -2,244 Descending Albuquerque Center
Sat 06:48:28 PM 32.2175 -107.3725 107° East 456 525 21,100 -1,951 Descending Albuquerque Center
Sat 06:49:29 PM 32.1847 -107.2356 106° East 443 510 19,200 -2,040 Descending Albuquerque Center
Sat 06:50:08 PM 32.1672 -107.1367 102° East 403 464 17,700 -1,935 Descending Albuquerque Center
Sat 06:50:31 PM 32.1589 -107.1061 108° East 409 471 17,200 -1,964 Descending Albuquerque Center
Sat 06:51:03 PM 32.1364 -107.0214 107° East 394 453 15,900 -1,967 Descending Albuquerque Center
Sat 06:51:32 PM 32.1269 -106.9839 107° East 396 456 15,200 -1,900 Descending Albuquerque Center
Sat 06:52:03 PM 32.1064 -106.8983 106° East 387 445 14,000 -2,361 Descending Albuquerque Center
Sat 06:52:33 PM 32.0936 -106.8406 105° East 383 441 12,800 -2,066 Descending Albuquerque Center
Sat 06:53:04 PM 32.0794 -106.7822 106° East 364 419 11,900 -1,645 Descending Albuquerque Center
Sat 06:53:35 PM 32.0667 -106.7300 106° East 360 414 11,100 -1,479 Descending Albuquerque Center
Sat 06:54:17 PM 32.0461 -106.6553 108° East 324 373 10,100 -1,082 Descending Albuquerque Center
Sat 06:54:36 PM 32.0406 -106.6289 104° East 329 379 10,000 -800 Descending Albuquerque Center
Sat 06:55:17 PM 32.0219 -106.5561 107° East 312 359 9,300 -787 Descending Albuquerque Center
Sat 06:55:37 PM 32.0158 -106.5325 107° East 310 357 9,200 -393 Descending Albuquerque Center
Sat 06:56:18 PM 31.9917 -106.4708 115° Southeast 273 314 8,900 -387 Descending Albuquerque Center
Sat 06:56:39 PM 31.9811 -106.4578 134° Southeast 260 299 8,800 -1,100 Descending Albuquerque Center
Sat 06:57:18 PM 31.9408 -106.4133 137° Southeast 242 278 7,800 -1,279 Descending Albuquerque Center
Sat 06:57:40 PM 31.9306 -106.4008 134° Southeast 248 285 7,500 -787 Descending Albuquerque Center
Sat 06:58:19 PM 31.8972 -106.3617 135° Southeast 210 242 7,000 -689 Descending Albuquerque Center
Sat 06:58:41 PM 31.8894 -106.3506 130° Southeast 205 236 6,800 -1,475 Descending Albuquerque Center
Sat 06:59:20 PM 31.8733 -106.3125 116° Southeast 163 188 5,500 -1,645 Descending Albuquerque Center
Sat 06:59:43 PM 31.8636 -106.3092 164° South 174 200 5,100 -778 Descending Albuquerque Center
Sat 07:00:14 PM 31.8453 -106.3347 230° Southwest 149 171 4,800 -787 Descending Albuquerque Center
Sat 07:00:44 PM 31.8336 -106.3533 234° Southwest 146 168 4,300 -593 Descending Albuquerque Center
Sat 07:01:45 PM 31.8108 -106.3853 230° Southwest 143 165 3,900 -393 Descending Albuquerque Center
Sat 07:03:00 PM 31.8072 -106.3764 90° East  Level Estimated
Sat 07:10:00 PM 31.8072 -106.3764 90° East  Level Estimated
Sat 07:11:00 PM 31.8072 -106.3764 90° East  Level Estimated
Sat 07:12:00 PM 31.8072 -106.3764 90° East  Level Estimated
Sat 07:13:00 PM 31.8072 -106.3764 90° East  Level Estimated

Login

Don't have an account? Register now (free) for customized features, flight alerts, and more!